Time;durP1;ratioP1;P1;durP2;ratioP2;P2;SDS_P1;SDS_P2;PMS_P1;PMS_P2;Temp;Humidity;BMP_temperature;BMP_pressure;BME280_temperature;BME280_humidity;BME280_pressure;Samples;Min_cycle;Max_cycle;Signal;HPM_P1;HPM_P2
2023/03/16 00:00:42;;;;;;;3.38;0.63;;;10.70;99.90;;;;;;5092877;28;20035;-79
2023/03/16 00:03:10;;;;;;;1.15;0.77;;;10.70;99.90;;;;;;5092481;28;20031;-78
2023/03/16 00:05:36;;;;;;;1.40;0.47;;;10.70;99.90;;;;;;5092464;28;20035;-78
2023/03/16 00:08:02;;;;;;;0.80;0.40;;;10.70;99.90;;;;;;5092103;28;20028;-82
2023/03/16 00:10:28;;;;;;;0.57;0.38;;;10.70;99.90;;;;;;5092646;28;20031;-76
2023/03/16 00:12:55;;;;;;;1.30;0.45;;;10.70;99.90;;;;;;5091187;28;20024;-77
2023/03/16 00:15:21;;;;;;;0.77;0.40;;;10.80;99.90;;;;;;5092058;28;20020;-77
2023/03/16 00:17:47;;;;;;;0.30;0.30;;;10.80;99.90;;;;;;5092699;28;20028;-77
2023/03/16 00:20:17;;;;;;;0.32;0.32;;;10.80;99.90;;;;;;5092015;28;20028;-77
2023/03/16 00:22:44;;;;;;;1.90;0.63;;;10.80;99.90;;;;;;5092041;28;20020;-77
2023/03/16 00:25:13;;;;;;;0.50;0.38;;;10.80;99.90;;;;;;5091605;28;20428;-77
2023/03/16 00:27:40;;;;;;;0.77;0.43;;;10.80;99.90;;;;;;5092689;28;20052;-77
2023/03/16 00:30:06;;;;;;;1.00;0.30;;;10.80;99.90;;;;;;5091822;28;20209;-77
2023/03/16 00:32:35;;;;;;;1.25;0.50;;;10.80;99.90;;;;;;5093009;28;20032;-77
2023/03/16 00:35:02;;;;;;;0.40;0.30;;;10.80;99.90;;;;;;5092685;28;20022;-79
2023/03/16 00:37:29;;;;;;;0.70;0.22;;;10.90;99.90;;;;;;5092653;28;20111;-77
2023/03/16 00:39:56;;;;;;;0.30;0.30;;;10.90;99.90;;;;;;5092346;28;20032;-76
2023/03/16 00:42:26;;;;;;;0.57;0.40;;;10.90;99.90;;;;;;5092214;28;20100;-76
2023/03/16 00:44:56;;;;;;;0.30;0.30;;;11.00;99.90;;;;;;5092974;28;20027;-76
2023/03/16 00:47:27;;;;;;;0.30;0.30;;;10.90;99.90;;;;;;5092283;28;20591;-77
2023/03/16 00:49:53;;;;;;;1.00;0.30;;;10.90;99.90;;;;;;5092637;28;20072;-75
2023/03/16 00:52:21;;;;;;;0.43;0.20;;;10.90;99.90;;;;;;5092221;28;20027;-75
2023/03/16 00:54:47;;;;;;;1.00;0.15;;;10.90;99.90;;;;;;5092217;28;20109;-76
2023/03/16 00:57:17;;;;;;;1.30;0.20;;;10.90;99.90;;;;;;5092209;28;20028;-76
2023/03/16 00:59:44;;;;;;;0.10;0.10;;;10.90;99.90;;;;;;5092829;28;20388;-76
2023/03/16 01:02:11;;;;;;;0.17;0.10;;;11.00;99.90;;;;;;5092093;28;20028;-76
2023/03/16 01:04:38;;;;;;;0.10;0.10;;;11.00;99.90;;;;;;5091817;28;20081;-75
2023/03/16 01:07:06;;;;;;;0.15;0.15;;;11.00;99.90;;;;;;5092819;28;20032;-79
2023/03/16 01:09:35;;;;;;;0.20;0.10;;;11.00;99.90;;;;;;5092007;28;20445;-76
2023/03/16 01:12:05;;;;;;;0.20;0.15;;;11.00;99.90;;;;;;5092481;28;20121;-75
2023/03/16 01:14:32;;;;;;;0.10;0.10;;;11.00;99.90;;;;;;5092374;28;20028;-75
2023/03/16 01:16:57;;;;;;;0.00;0.00;;;11.00;99.90;;;;;;5091184;28;20327;-75
2023/03/16 01:19:23;;;;;;;0.10;0.10;;;11.00;99.90;;;;;;5091611;28;20034;-76
2023/03/16 01:21:49;;;;;;;0.22;0.20;;;10.90;99.90;;;;;;5092208;28;20160;-75
2023/03/16 01:24:15;;;;;;;0.10;0.10;;;11.00;99.90;;;;;;5091367;28;20094;-76
2023/03/16 01:26:40;;;;;;;0.30;0.20;;;11.00;99.90;;;;;;5091835;28;20092;-75
2023/03/16 01:29:06;;;;;;;0.65;0.20;;;11.00;99.90;;;;;;5091808;28;20103;-79
2023/03/16 01:31:32;;;;;;;0.25;0.13;;;11.00;99.90;;;;;;5092546;28;20070;-76
2023/03/16 01:33:58;;;;;;;0.43;0.30;;;11.00;99.90;;;;;;5093191;28;20319;-75
2023/03/16 01:36:24;;;;;;;0.20;0.20;;;10.90;99.90;;;;;;5090701;28;20155;-75
2023/03/16 01:38:50;;;;;;;1.55;0.25;;;10.90;99.90;;;;;;5093258;28;20028;-76
2023/03/16 01:41:15;;;;;;;0.10;0.10;;;10.90;99.90;;;;;;5091728;28;20446;-75
2023/03/16 01:43:42;;;;;;;0.20;0.20;;;10.90;99.90;;;;;;5091701;28;20103;-76
2023/03/16 01:46:17;;;;;;;1.10;0.20;;;10.90;99.90;;;;;;5091149;28;20024;-79
2023/03/16 01:49:08;;;;;;;0.20;0.20;;;10.90;99.90;;;;;;5091043;28;20427;-76
2023/03/16 01:51:50;;;;;;;0.30;0.30;;;10.90;99.90;;;;;;5088663;28;20032;-76
2023/03/16 01:54:16;;;;;;;2.83;0.40;;;10.90;99.90;;;;;;5090950;28;20023;-75
2023/03/16 01:56:58;;;;;;;0.40;0.40;;;10.90;99.90;;;;;;5090222;28;20397;-75
2023/03/16 01:59:29;;;;;;;1.90;0.35;;;10.90;99.90;;;;;;5090793;28;20193;-75
2023/03/16 02:01:55;;;;;;;0.40;0.40;;;10.90;99.90;;;;;;5091579;28;20378;-75
2023/03/16 02:04:34;;;;;;;1.98;0.28;;;10.90;99.90;;;;;;5091212;28;20053;-75
2023/03/16 02:07:00;;;;;;;1.27;0.30;;;10.90;99.90;;;;;;5091468;28;20027;-76
2023/03/16 02:09:26;;;;;;;1.88;0.50;;;10.90;99.90;;;;;;5090778;28;20385;-75
2023/03/16 02:11:53;;;;;;;3.95;0.50;;;10.90;99.90;;;;;;5091186;28;20024;-75
2023/03/16 02:14:19;;;;;;;2.15;0.50;;;10.90;99.90;;;;;;5090516;28;20043;-75
2023/03/16 02:16:46;;;;;;;2.55;0.68;;;10.90;99.90;;;;;;5090807;28;20031;-75
2023/03/16 02:19:23;;;;;;;1.92;0.95;;;10.90;99.90;;;;;;5090218;28;20556;-75
2023/03/16 02:22:03;;;;;;;0.80;0.55;;;10.90;99.90;;;;;;5089463;28;20169;-75
2023/03/16 02:24:29;;;;;;;4.78;0.85;;;10.90;99.90;;;;;;5090813;28;20094;-75
2023/03/16 02:27:11;;;;;;;1.95;0.70;;;10.90;99.90;;;;;;5090864;28;20059;-75
2023/03/16 02:30:11;;;;;;;4.18;0.93;;;11.00;99.90;;;;;;5090869;28;20110;-75
2023/03/16 02:32:39;;;;;;;8.30;1.60;;;11.10;99.90;;;;;;5085741;28;20128;-74
2023/03/16 02:35:06;;;;;;;4.50;1.30;;;11.10;99.90;;;;;;5090513;28;20107;-75
2023/03/16 02:37:32;;;;;;;9.40;1.60;;;11.00;99.90;;;;;;5090338;28;20032;-75
2023/03/16 02:40:00;;;;;;;7.10;1.42;;;11.10;99.90;;;;;;5090446;28;20031;-75
2023/03/16 02:42:26;;;;;;;6.93;1.70;;;11.10;99.90;;;;;;5089741;28;20437;-75
2023/03/16 02:44:57;;;;;;;8.30;1.35;;;11.00;99.90;;;;;;5090654;28;20107;-74
2023/03/16 02:47:37;;;;;;;5.60;1.38;;;11.10;99.90;;;;;;5089671;28;20069;-75
2023/03/16 02:50:05;;;;;;;6.07;1.40;;;11.10;99.90;;;;;;5090133;28;20135;-74
2023/03/16 02:52:35;;;;;;;6.00;1.58;;;11.10;99.90;;;;;;5088537;28;20640;-76
2023/03/16 02:55:02;;;;;;;9.20;1.33;;;11.10;99.90;;;;;;5088913;28;20024;-75
2023/03/16 02:57:27;;;;;;;9.98;1.27;;;11.10;99.90;;;;;;5090551;28;20346;-75
2023/03/16 02:59:53;;;;;;;6.65;1.45;;;11.10;99.90;;;;;;5090619;28;20028;-75
2023/03/16 03:02:19;;;;;;;5.80;1.50;;;11.10;99.90;;;;;;5090066;28;20460;-75
2023/03/16 03:04:45;;;;;;;4.45;1.30;;;11.10;99.90;;;;;;5090638;28;20327;-75
2023/03/16 03:07:14;;;;;;;9.27;1.90;;;11.20;99.90;;;;;;5090506;28;20127;-75
2023/03/16 03:09:41;;;;;;;5.53;1.13;;;11.20;99.90;;;;;;5090766;28;20039;-75
2023/03/16 03:12:10;;;;;;;4.22;0.80;;;11.20;99.90;;;;;;5090315;28;20032;-75
2023/03/16 03:14:39;;;;;;;4.65;1.00;;;11.20;99.90;;;;;;5089757;28;20083;-75
2023/03/16 03:17:06;;;;;;;3.65;0.95;;;11.20;99.90;;;;;;5090044;28;20028;-75
2023/03/16 03:19:33;;;;;;;2.38;0.70;;;11.20;99.90;;;;;;5089361;28;20109;-75
2023/03/16 03:22:03;;;;;;;3.55;0.88;;;11.20;99.90;;;;;;5090332;28;20032;-75
2023/03/16 03:24:30;;;;;;;4.28;1.30;;;11.20;99.90;;;;;;5088392;28;20024;-74
2023/03/16 03:26:56;;;;;;;2.58;0.60;;;11.20;99.90;;;;;;5089969;28;20095;-74
2023/03/16 03:29:22;;;;;;;2.20;0.85;;;11.20;99.90;;;;;;5092839;28;20051;-75
2023/03/16 03:31:47;;;;;;;2.42;0.70;;;11.20;99.90;;;;;;5092699;28;20424;-75
2023/03/16 03:34:14;;;;;;;1.75;0.57;;;11.20;99.90;;;;;;5093356;28;20055;-78
2023/03/16 03:36:40;;;;;;;5.00;0.82;;;11.20;99.90;;;;;;5093967;28;20024;-75
2023/03/16 03:39:06;;;;;;;4.10;1.08;;;11.20;99.90;;;;;;5093978;28;20043;-74
2023/03/16 03:41:32;;;;;;;3.88;1.13;;;11.20;99.90;;;;;;5091730;28;20059;-75
2023/03/16 03:43:59;;;;;;;4.78;0.70;;;11.20;99.90;;;;;;5093723;28;20179;-75
2023/03/16 03:46:25;;;;;;;3.40;0.85;;;11.20;99.90;;;;;;5093273;28;20027;-74
2023/03/16 03:48:51;;;;;;;5.63;0.98;;;11.20;99.90;;;;;;5093847;28;20082;-74
2023/03/16 03:51:17;;;;;;;4.93;0.80;;;11.20;99.90;;;;;;5091507;28;20089;-75
2023/03/16 03:53:43;;;;;;;7.72;1.17;;;11.20;99.90;;;;;;5093361;28;20024;-75
2023/03/16 03:56:08;;;;;;;3.28;0.90;;;11.30;99.90;;;;;;5094058;28;20420;-74
2023/03/16 03:58:34;;;;;;;2.90;0.82;;;11.20;99.90;;;;;;5092904;28;20028;-75
2023/03/16 04:01:00;;;;;;;3.97;0.90;;;11.20;99.90;;;;;;5093371;28;20028;-75
2023/03/16 04:03:26;;;;;;;5.65;1.00;;;11.20;99.90;;;;;;5093053;28;20418;-75
2023/03/16 04:05:51;;;;;;;3.95;0.82;;;11.30;99.90;;;;;;5093493;28;20026;-75
2023/03/16 04:08:17;;;;;;;6.28;1.20;;;11.20;99.90;;;;;;5093154;28;20039;-79
2023/03/16 04:10:43;;;;;;;3.17;0.93;;;11.20;99.90;;;;;;5093349;28;20130;-75
2023/03/16 04:13:09;;;;;;;5.82;1.40;;;11.20;99.90;;;;;;5093133;28;20025;-75
2023/03/16 04:15:37;;;;;;;4.30;0.93;;;11.20;99.90;;;;;;5092314;28;20050;-75
2023/03/16 04:18:03;;;;;;;6.68;1.25;;;11.20;99.90;;;;;;5092990;28;20063;-75
2023/03/16 04:20:29;;;;;;;6.15;1.27;;;11.20;99.90;;;;;;5092324;28;20055;-75
2023/03/16 04:22:57;;;;;;;2.55;0.70;;;11.20;99.90;;;;;;5093104;28;20089;-75
2023/03/16 04:25:25;;;;;;;6.50;1.10;;;11.20;99.90;;;;;;5092542;28;20107;-74
2023/03/16 04:27:51;;;;;;;7.65;1.83;;;11.20;99.90;;;;;;5093261;28;20052;-73
2023/03/16 04:30:17;;;;;;;2.70;0.80;;;11.20;99.90;;;;;;5092862;28;20040;-77
2023/03/16 04:32:43;;;;;;;2.72;1.00;;;11.20;99.90;;;;;;5092680;28;20028;-74
2023/03/16 04:35:09;;;;;;;4.57;1.20;;;11.30;99.90;;;;;;5092801;28;20024;-74
2023/03/16 04:37:35;;;;;;;4.18;0.90;;;11.30;99.90;;;;;;5090893;28;20438;-74
2023/03/16 04:40:09;;;;;;;4.00;0.90;;;11.30;99.90;;;;;;5090970;28;20151;-74
2023/03/16 04:42:35;;;;;;;4.47;0.73;;;11.30;99.90;;;;;;5092107;28;20020;-74
2023/03/16 04:45:01;;;;;;;6.00;1.35;;;11.30;99.90;;;;;;5092845;28;20150;-74
2023/03/16 04:47:26;;;;;;;5.82;1.00;;;11.30;99.90;;;;;;5092053;28;20375;-75
2023/03/16 04:49:52;;;;;;;5.80;1.20;;;11.40;99.90;;;;;;5092483;28;20047;-75
2023/03/16 04:52:18;;;;;;;2.90;1.10;;;11.30;99.90;;;;;;5092485;28;20029;-74
2023/03/16 04:54:44;;;;;;;5.38;0.88;;;11.30;99.90;;;;;;5092039;28;20028;-74
2023/03/16 04:57:10;;;;;;;3.17;0.90;;;11.30;99.90;;;;;;5092644;28;20048;-73
2023/03/16 04:59:35;;;;;;;5.35;0.88;;;11.20;99.90;;;;;;5091692;28;20072;-74
2023/03/16 05:02:02;;;;;;;2.10;0.82;;;11.20;99.90;;;;;;5092576;28;20059;-74
2023/03/16 05:04:28;;;;;;;4.68;1.30;;;11.20;99.90;;;;;;5090479;28;20443;-74
2023/03/16 05:06:54;;;;;;;4.68;1.35;;;11.30;99.90;;;;;;5090951;28;20050;-73
2023/03/16 05:09:20;;;;;;;5.47;0.93;;;11.30;99.90;;;;;;5092405;28;20515;-76
2023/03/16 05:11:45;;;;;;;4.70;0.93;;;11.30;99.90;;;;;;5091916;28;20399;-75
2023/03/16 05:14:11;;;;;;;4.95;0.88;;;11.30;99.90;;;;;;5091815;28;20024;-73
2023/03/16 05:16:37;;;;;;;6.70;1.20;;;11.30;99.90;;;;;;5091502;28;20035;-74
2023/03/16 05:19:03;;;;;;;4.22;1.00;;;11.30;99.90;;;;;;5090592;28;20039;-74
2023/03/16 05:21:30;;;;;;;4.88;1.20;;;11.30;99.90;;;;;;5091575;28;20080;-74
2023/03/16 05:23:56;;;;;;;2.00;0.70;;;11.30;99.90;;;;;;5091822;28;20028;-74
2023/03/16 05:26:24;;;;;;;2.97;0.93;;;11.30;99.90;;;;;;5096969;28;20040;-77
2023/03/16 05:28:50;;;;;;;3.85;1.10;;;11.30;99.90;;;;;;5112587;28;20035;-74
2023/03/16 05:31:17;;;;;;;3.92;1.02;;;11.30;99.90;;;;;;5112972;28;20454;-74
2023/03/16 05:33:43;;;;;;;3.97;1.15;;;11.30;99.90;;;;;;5111904;28;20024;-74
2023/03/16 05:36:09;;;;;;;3.40;0.80;;;11.30;99.90;;;;;;5112662;28;20119;-74
2023/03/16 05:38:35;;;;;;;5.85;0.70;;;11.30;99.90;;;;;;5110926;28;20036;-75
2023/03/16 05:41:03;;;;;;;2.22;0.80;;;11.30;99.90;;;;;;5111089;28;20027;-75
2023/03/16 05:43:29;;;;;;;2.65;0.70;;;11.40;99.90;;;;;;5111457;28;20027;-75
2023/03/16 05:45:56;;;;;;;2.80;0.60;;;11.40;99.90;;;;;;5112068;28;20093;-74
2023/03/16 05:48:24;;;;;;;2.88;0.50;;;11.30;99.90;;;;;;5110572;28;20471;-74
2023/03/16 05:50:51;;;;;;;2.80;0.50;;;11.30;99.90;;;;;;5111595;28;20023;-75
2023/03/16 05:53:17;;;;;;;2.30;0.63;;;11.30;99.90;;;;;;5111724;28;20074;-74
2023/03/16 05:55:43;;;;;;;1.10;0.43;;;11.20;99.90;;;;;;5111360;28;20482;-74
2023/03/16 05:58:08;;;;;;;2.05;0.60;;;11.20;99.90;;;;;;5111711;28;20024;-74
2023/03/16 06:00:34;;;;;;;2.20;0.50;;;11.20;99.90;;;;;;5111218;28;20526;-74
2023/03/16 06:03:00;;;;;;;6.60;0.70;;;11.20;99.90;;;;;;5111529;28;20107;-75
2023/03/16 06:05:27;;;;;;;2.47;0.65;;;11.20;99.90;;;;;;5110855;28;20099;-79
2023/03/16 06:07:53;;;;;;;7.65;0.95;;;11.20;99.90;;;;;;5111665;28;20039;-76
2023/03/16 06:10:19;;;;;;;1.85;0.35;;;11.20;99.90;;;;;;5111504;28;20028;-76
2023/03/16 06:12:45;;;;;;;4.80;0.50;;;11.20;99.90;;;;;;5111101;28;20031;-76
2023/03/16 06:15:11;;;;;;;1.40;0.40;;;11.20;99.90;;;;;;5111456;28;20023;-76
2023/03/16 06:17:40;;;;;;;3.45;0.60;;;11.10;99.90;;;;;;5109634;28;20031;-76
2023/03/16 06:20:09;;;;;;;2.22;0.40;;;11.20;99.90;;;;;;5111319;28;20042;-76
2023/03/16 06:22:40;;;;;;;1.73;0.43;;;11.20;99.90;;;;;;5110093;28;20027;-77
2023/03/16 06:25:08;;;;;;;1.60;0.45;;;11.20;99.90;;;;;;5111396;28;20094;-76
2023/03/16 06:27:34;;;;;;;2.33;0.50;;;11.10;99.90;;;;;;5110853;28;20079;-77
2023/03/16 06:30:00;;;;;;;2.47;0.38;;;11.10;99.90;;;;;;5111363;28;20034;-76
2023/03/16 06:32:26;;;;;;;1.75;0.50;;;11.10;99.90;;;;;;5111295;28;20118;-80
2023/03/16 06:34:52;;;;;;;2.67;0.55;;;11.10;99.90;;;;;;5111168;28;20067;-77
2023/03/16 06:37:18;;;;;;;1.13;0.50;;;11.10;99.90;;;;;;5111296;28;20094;-77
2023/03/16 06:39:43;;;;;;;3.05;0.80;;;11.10;99.90;;;;;;5110425;28;20465;-77
2023/03/16 06:42:10;;;;;;;1.20;0.45;;;11.10;99.90;;;;;;5111236;28;20051;-77
2023/03/16 06:44:36;;;;;;;1.67;0.40;;;11.10;99.90;;;;;;5110321;28;20450;-77
2023/03/16 06:47:02;;;;;;;2.05;0.90;;;11.20;99.90;;;;;;5111231;28;20020;-77
2023/03/16 06:49:28;;;;;;;2.60;0.60;;;11.20;99.90;;;;;;5110585;28;20028;-78
2023/03/16 06:51:55;;;;;;;6.18;0.50;;;11.20;99.90;;;;;;5111621;28;20030;-76
2023/03/16 06:54:21;;;;;;;1.45;0.60;;;11.20;99.90;;;;;;5110458;28;20496;-76
2023/03/16 06:56:46;;;;;;;1.58;0.63;;;11.20;99.90;;;;;;5111477;28;20051;-76
2023/03/16 06:59:12;;;;;;;0.65;0.30;;;11.20;99.90;;;;;;5111306;28;20381;-76
2023/03/16 07:01:39;;;;;;;1.63;0.47;;;11.30;99.90;;;;;;5111311;28;20097;-76
2023/03/16 07:04:04;;;;;;;2.75;0.50;;;11.30;99.90;;;;;;5114907;28;20054;-75
2023/03/16 07:06:31;;;;;;;0.85;0.40;;;11.30;99.90;;;;;;5114721;28;20031;-79
2023/03/16 07:08:56;;;;;;;2.33;0.40;;;11.30;99.90;;;;;;5114952;27;20054;-76
2023/03/16 07:11:22;;;;;;;3.45;0.65;;;11.30;99.90;;;;;;5115043;28;20027;-75
2023/03/16 07:13:48;;;;;;;2.67;0.32;;;11.30;99.90;;;;;;5114782;28;20092;-76
2023/03/16 07:16:13;;;;;;;0.30;0.20;;;11.30;99.90;;;;;;5115047;28;20343;-75
2023/03/16 07:18:43;;;;;;;1.17;0.30;;;11.30;99.90;;;;;;5112768;28;20366;-76
2023/03/16 07:21:09;;;;;;;0.85;0.40;;;11.30;99.90;;;;;;5113559;27;20046;-76
2023/03/16 07:23:34;;;;;;;0.50;0.40;;;11.20;99.90;;;;;;5114228;28;20027;-75
2023/03/16 07:26:00;;;;;;;1.92;0.90;;;11.20;99.90;;;;;;5114569;28;20028;-75
2023/03/16 07:28:26;;;;;;;1.08;0.63;;;11.20;99.90;;;;;;5099466;28;20115;-75
2023/03/16 07:30:52;;;;;;;1.08;0.40;;;11.20;99.90;;;;;;5093564;28;20107;-75
2023/03/16 07:33:19;;;;;;;2.42;0.50;;;11.20;99.90;;;;;;5094502;28;20342;-74
2023/03/16 07:35:45;;;;;;;1.35;0.40;;;11.20;99.90;;;;;;5092042;28;20024;-75
2023/03/16 07:38:11;;;;;;;1.75;0.70;;;11.20;99.90;;;;;;5094313;28;20320;-74
2023/03/16 07:40:39;;;;;;;2.42;0.50;;;11.20;99.90;;;;;;5093521;28;20024;-74
2023/03/16 07:43:04;;;;;;;0.40;0.22;;;11.20;99.90;;;;;;5093542;28;20065;-74
2023/03/16 07:45:30;;;;;;;0.57;0.30;;;11.20;99.90;;;;;;5093360;28;20071;-75
2023/03/16 07:47:56;;;;;;;0.55;0.45;;;11.30;99.90;;;;;;5093308;28;20020;-74
2023/03/16 07:50:22;;;;;;;1.30;0.20;;;11.30;99.90;;;;;;5093764;28;20051;-74
2023/03/16 07:52:48;;;;;;;0.60;0.28;;;11.40;99.90;;;;;;5093040;28;20067;-75
2023/03/16 07:55:14;;;;;;;0.20;0.20;;;11.40;99.90;;;;;;5093588;28;20020;-75
2023/03/16 07:57:41;;;;;;;0.22;0.22;;;11.40;99.90;;;;;;5093605;28;20020;-74
2023/03/16 08:00:08;;;;;;;0.88;0.38;;;11.40;99.90;;;;;;5093398;28;20391;-74
2023/03/16 08:02:34;;;;;;;1.83;0.28;;;11.40;99.90;;;;;;5093053;28;20059;-79
2023/03/16 08:04:59;;;;;;;0.82;0.30;;;11.50;99.90;;;;;;5093430;28;20051;-75
2023/03/16 08:07:26;;;;;;;1.35;0.50;;;11.50;99.90;;;;;;5093584;28;20448;-75
2023/03/16 08:09:52;;;;;;;1.83;0.38;;;11.50;99.90;;;;;;5091616;28;20035;-76
2023/03/16 08:12:17;;;;;;;2.53;0.30;;;11.50;99.90;;;;;;5093292;28;20462;-74
2023/03/16 08:14:44;;;;;;;0.45;0.35;;;11.50;99.90;;;;;;5092431;28;20089;-76
2023/03/16 08:17:11;;;;;;;0.93;0.30;;;11.60;99.90;;;;;;5093416;28;20023;-75
2023/03/16 08:19:37;;;;;;;1.55;0.55;;;11.70;99.90;;;;;;5092699;28;20040;-76
2023/03/16 08:22:04;;;;;;;2.97;0.32;;;11.70;99.90;;;;;;5091703;28;20058;-75
2023/03/16 08:24:30;;;;;;;1.33;0.40;;;11.80;99.90;;;;;;5093056;28;20024;-74
2023/03/16 08:26:57;;;;;;;2.88;0.40;;;11.80;99.90;;;;;;5092374;28;20059;-74
2023/03/16 08:29:24;;;;;;;2.30;0.50;;;11.80;99.90;;;;;;5091672;28;20027;-74
2023/03/16 08:31:52;;;;;;;1.00;0.30;;;11.90;99.90;;;;;;5092777;28;20144;-74
2023/03/16 08:34:18;;;;;;;2.10;0.30;;;11.90;99.90;;;;;;5092929;28;20020;-74
2023/03/16 08:36:44;;;;;;;2.92;0.40;;;11.90;99.90;;;;;;5092355;28;20417;-75
2023/03/16 08:39:09;;;;;;;4.13;0.40;;;11.90;99.90;;;;;;5092441;28;20138;-73
2023/03/16 08:41:35;;;;;;;4.03;0.60;;;11.90;99.90;;;;;;5092221;28;20028;-79
2023/03/16 08:44:02;;;;;;;1.65;0.40;;;12.00;99.90;;;;;;5092403;28;20110;-76
2023/03/16 08:46:27;;;;;;;1.65;0.40;;;12.10;99.90;;;;;;5092579;28;20124;-74
2023/03/16 08:48:54;;;;;;;1.02;0.30;;;12.10;99.90;;;;;;5092093;28;20114;-73
2023/03/16 08:51:20;;;;;;;0.73;0.38;;;12.20;99.90;;;;;;5092508;28;20042;-74
2023/03/16 08:53:46;;;;;;;1.45;0.38;;;12.20;99.90;;;;;;5091531;28;20107;-74
2023/03/16 08:56:13;;;;;;;0.40;0.20;;;12.20;99.90;;;;;;5092288;28;20024;-74
2023/03/16 08:58:44;;;;;;;2.75;0.65;;;12.30;99.90;;;;;;5092012;28;20032;-75
2023/03/16 09:01:12;;;;;;;1.20;0.47;;;12.50;99.90;;;;;;5092274;28;20035;-73
2023/03/16 09:03:39;;;;;;;0.93;0.22;;;12.60;99.90;;;;;;5092232;28;20024;-78
2023/03/16 09:06:08;;;;;;;1.60;0.40;;;12.70;99.90;;;;;;5092390;28;20036;-74
2023/03/16 09:08:35;;;;;;;2.03;0.45;;;12.80;99.90;;;;;;5091121;28;20036;-74
2023/03/16 09:11:07;;;;;;;0.52;0.30;;;12.90;99.90;;;;;;5090450;28;20301;-74
2023/03/16 09:13:34;;;;;;;0.60;0.30;;;13.20;99.90;;;;;;5092277;28;20020;-74
2023/03/16 09:16:00;;;;;;;9.07;1.17;;;13.30;99.90;;;;;;5090395;28;20082;-74
2023/03/16 09:18:26;;;;;;;1.33;0.65;;;13.40;99.90;;;;;;5111682;28;20086;-74
2023/03/16 09:21:03;;;;;;;1.00;0.40;;;13.40;99.90;;;;;;5102845;28;20046;-74
2023/03/16 09:23:30;;;;;;;0.93;0.30;;;13.40;99.90;;;;;;5103353;28;20052;-75
2023/03/16 09:26:01;;;;;;;1.95;0.30;;;13.30;99.90;;;;;;5096338;28;20128;-75
2023/03/16 09:28:29;;;;;;;1.35;0.40;;;13.30;99.90;;;;;;5092112;28;20020;-75
2023/03/16 09:30:55;;;;;;;0.55;0.30;;;13.20;99.90;;;;;;5091305;28;20024;-75
2023/03/16 09:33:23;;;;;;;1.13;0.40;;;13.10;99.90;;;;;;5091895;28;20572;-74
2023/03/16 09:35:49;;;;;;;1.20;0.40;;;13.00;99.90;;;;;;5090863;28;20409;-75
2023/03/16 09:38:16;;;;;;;1.02;0.30;;;13.00;99.90;;;;;;5091370;28;20032;-75
2023/03/16 09:40:42;;;;;;;2.38;0.47;;;13.00;99.90;;;;;;5091194;28;20478;-74
2023/03/16 09:43:38;;;;;;;1.42;0.70;;;12.90;99.90;;;;;;5091570;28;20062;-75
2023/03/16 09:46:14;;;;;;;1.90;0.40;;;12.90;99.90;;;;;;5091127;28;20070;-75
2023/03/16 09:48:40;;;;;;;0.35;0.20;;;13.00;99.90;;;;;;5091365;28;20035;-79
2023/03/16 09:51:30;;;;;;;1.05;0.30;;;13.00;99.90;;;;;;5091045;28;20138;-77
2023/03/16 09:54:00;;;;;;;3.22;0.43;;;13.10;99.90;;;;;;5085106;28;20077;-74
2023/03/16 09:56:36;;;;;;;1.77;0.40;;;13.20;99.90;;;;;;5093705;28;20116;-74
2023/03/16 09:59:12;;;;;;;2.67;0.75;;;13.20;99.90;;;;;;5089873;28;20107;-74
2023/03/16 10:01:56;;;;;;;2.92;0.45;;;13.30;99.90;;;;;;5090906;28;20089;-75
2023/03/16 10:04:46;;;;;;;0.63;0.25;;;13.40;99.90;;;;;;5090768;28;20039;-74
2023/03/16 10:07:21;;;;;;;1.70;0.30;;;13.60;99.90;;;;;;5090776;28;20028;-74
2023/03/16 10:09:55;;;;;;;0.47;0.35;;;13.60;99.90;;;;;;5090764;28;20107;-74
2023/03/16 10:12:34;;;;;;;1.17;0.70;;;13.60;99.90;;;;;;5090862;28;20024;-74
2023/03/16 10:15:13;;;;;;;1.42;0.40;;;13.60;99.90;;;;;;5090622;28;20038;-73
2023/03/16 10:17:45;;;;;;;2.72;0.40;;;13.50;99.90;;;;;;5091032;28;20020;-74
2023/03/16 10:20:17;;;;;;;1.17;0.30;;;13.50;99.90;;;;;;5090873;28;20119;-74
2023/03/16 10:22:45;;;;;;;2.00;0.20;;;13.50;99.90;;;;;;5090585;28;20102;-79
2023/03/16 10:25:22;;;;;;;0.95;0.20;;;13.50;99.90;;;;;;5090430;28;20032;-75
2023/03/16 10:27:49;;;;;;;1.33;0.30;;;13.40;99.90;;;;;;5090494;28;20039;-74
2023/03/16 10:30:28;;;;;;;2.58;0.60;;;13.40;99.90;;;;;;5091492;28;20028;-75
2023/03/16 10:32:59;;;;;;;1.67;0.40;;;13.40;99.90;;;;;;5110450;28;20097;-74
2023/03/16 10:35:33;;;;;;;0.52;0.20;;;13.30;99.90;;;;;;5111471;28;20028;-73
2023/03/16 10:37:59;;;;;;;0.30;0.30;;;13.30;99.90;;;;;;5111448;28;20030;-74
2023/03/16 10:40:25;;;;;;;0.45;0.30;;;13.20;99.90;;;;;;5112139;28;20396;-73
2023/03/16 10:42:51;;;;;;;2.80;0.30;;;13.20;99.90;;;;;;5112606;28;20072;-74
2023/03/16 10:45:28;;;;;;;0.60;0.20;;;13.30;99.90;;;;;;5111795;28;20450;-75
2023/03/16 10:48:24;;;;;;;1.52;0.30;;;13.40;99.90;;;;;;5111033;28;20019;-74
2023/03/16 10:50:54;;;;;;;0.73;0.40;;;13.50;99.90;;;;;;5111598;28;20070;-74
2023/03/16 10:53:29;;;;;;;1.42;0.47;;;13.70;99.90;;;;;;5097275;28;20024;-74
2023/03/16 10:56:04;;;;;;;0.38;0.30;;;13.70;99.90;;;;;;5091287;28;20039;-74
2023/03/16 10:58:32;;;;;;;2.30;0.38;;;13.70;99.90;;;;;;5091911;28;20113;-74
2023/03/16 11:00:58;;;;;;;1.23;0.28;;;13.70;99.90;;;;;;5091066;28;20382;-75
2023/03/16 11:03:40;;;;;;;2.15;1.00;;;13.70;99.90;;;;;;5091690;28;20035;-75
2023/03/16 11:06:15;;;;;;;0.88;0.60;;;13.80;99.90;;;;;;5091255;28;20016;-74
2023/03/16 11:08:41;;;;;;;0.85;0.63;;;13.80;99.90;;;;;;5091674;28;20035;-74
2023/03/16 11:11:15;;;;;;;1.95;0.80;;;13.90;99.90;;;;;;5090771;28;20031;-75
2023/03/16 11:13:46;;;;;;;1.85;0.60;;;13.90;99.90;;;;;;5090502;28;20046;-74
2023/03/16 11:16:29;;;;;;;29.23;4.13;;;14.00;99.90;;;;;;5091810;28;20107;-74
2023/03/16 11:19:04;;;;;;;4.22;0.52;;;14.10;99.90;;;;;;5090679;28;20044;-74
2023/03/16 11:21:50;;;;;;;12.48;1.65;;;14.10;99.90;;;;;;5090478;28;20402;-74
2023/03/16 11:24:36;;;;;;;4.68;0.95;;;14.10;99.90;;;;;;5090143;28;20515;-74
2023/03/16 11:27:07;;;;;;;0.43;0.40;;;14.00;99.90;;;;;;5089353;28;20087;-75
2023/03/16 11:30:01;;;;;;;4.07;0.50;;;13.90;99.90;;;;;;5088857;28;20035;-75
2023/03/16 11:32:34;;;;;;;6.90;0.90;;;14.00;99.90;;;;;;5090454;28;20035;-74
2023/03/16 11:35:03;;;;;;;9.48;1.85;;;14.10;99.90;;;;;;5089542;28;20101;-75
2023/03/16 11:37:47;;;;;;;4.63;0.98;;;14.20;99.90;;;;;;5089663;28;20421;-75
2023/03/16 11:40:18;;;;;;;4.90;0.90;;;14.30;99.90;;;;;;5089780;28;20028;-75
2023/03/16 11:42:58;;;;;;;20.67;3.05;;;14.50;99.90;;;;;;5090128;28;20224;-74
2023/03/16 11:45:58;;;;;;;4.00;0.47;;;14.70;99.90;;;;;;5090055;28;20036;-74
2023/03/16 11:48:36;;;;;;;0.60;0.40;;;14.80;99.90;;;;;;5082891;28;20121;-74
2023/03/16 11:51:10;;;;;;;3.17;0.90;;;14.90;99.90;;;;;;5093072;28;20033;-74
2023/03/16 11:53:42;;;;;;;1.42;0.50;;;15.00;99.90;;;;;;5093521;28;20147;-74
2023/03/16 11:56:23;;;;;;;14.23;2.22;;;15.00;99.90;;;;;;5093109;28;20020;-74
2023/03/16 11:59:05;;;;;;;5.10;1.20;;;14.90;99.90;;;;;;5093046;28;20040;-78
2023/03/16 12:01:49;;;;;;;0.77;0.40;;;15.00;99.90;;;;;;5093749;28;20046;-76
2023/03/16 12:04:27;;;;;;;3.17;1.27;;;15.00;99.90;;;;;;5093772;28;20035;-75
2023/03/16 12:07:04;;;;;;;6.00;0.98;;;15.00;99.90;;;;;;5092831;28;20082;-75
2023/03/16 12:09:50;;;;;;;6.22;1.33;;;15.00;99.90;;;;;;5095103;28;20100;-76
2023/03/16 12:13:09;;;;;;;1.67;0.40;;;15.00;99.90;;;;;;5109623;28;20047;-75
2023/03/16 12:15:47;;;;;;;1.30;0.60;;;15.00;99.90;;;;;;5090514;28;20403;-74
2023/03/16 12:18:22;;;;;;;38.25;4.63;;;15.10;99.90;;;;;;5090432;28;20046;-74
2023/03/16 12:21:04;;;;;;;1.83;0.60;;;15.20;99.90;;;;;;5090610;28;20404;-76
2023/03/16 12:23:41;;;;;;;0.52;0.30;;;15.20;99.90;;;;;;5090594;28;20505;-75
2023/03/16 12:26:07;;;;;;;35.55;4.25;;;15.20;99.90;;;;;;5089460;28;20143;-74
2023/03/16 12:28:35;;;;;;;43.00;4.45;;;15.20;99.90;;;;;;5073682;28;20131;-74
2023/03/16 12:31:18;;;;;;;10.10;2.20;;;15.20;99.90;;;;;;5089942;28;20163;-75
2023/03/16 12:33:47;;;;;;;;;;;15.10;99.90;;;;;;5074058;28;20423;-75
2023/03/16 12:36:16;;;;;;;4.03;1.40;;;15.20;99.90;;;;;;5089812;28;19904;-74
2023/03/16 12:38:48;;;;;;;31.92;3.30;;;15.10;99.90;;;;;;5090228;28;20036;-75
2023/03/16 12:41:32;;;;;;;2.28;0.80;;;15.10;99.90;;;;;;5089746;28;20032;-75
2023/03/16 12:43:57;;;;;;;1.45;0.80;;;15.10;99.90;;;;;;5089755;28;20069;-75
2023/03/16 12:46:38;;;;;;;34.88;5.20;;;15.10;99.90;;;;;;5090219;28;20023;-74
2023/03/16 12:49:06;;;;;;;11.50;1.50;;;15.10;99.90;;;;;;5099180;28;20100;-75
2023/03/16 12:51:40;;;;;;;19.73;3.17;;;15.00;99.90;;;;;;5112654;28;20034;-74
2023/03/16 12:54:21;;;;;;;2.63;0.75;;;14.90;99.90;;;;;;5112413;28;20106;-75
2023/03/16 12:56:49;;;;;;;3.05;0.63;;;14.80;99.90;;;;;;5113248;28;20034;-75